Weather at Black Diamond Airport

Public forecast

Using degrees Fahrenheit for public forecast. Weather courtesy of forecast.io.

Closest aviation weather report (METAR) to Black Diamond Airport

Closest report is Renton Municipal Airport, 13.5 nm (25.1 km) NW.

2024/05/24 16:53 (retrieved 56 minutes ago)

KRNT 241653Z 18007KT 6SM BKN065 OVC095 13/07 A2991 RMK AO2 SLP132 T01280067

Closest aviation forecast (TAF) to Black Diamond Airport

Closest forecast is Seattle–Tacoma International Airport, 14.6 nm (27.0 km) WNW.

2024/05/24 15:10 Ammendment (retrieved 3 hours ago)

TAF AMD KSEA 241507Z 2415/2518 19006KT P6SM VCSH FEW035 BKN080 OVC090 TEMPO 2415/2418 OVC025 FM241800 20007KT P6SM VCSH OVC025 FM242100 21008KT 6SM -RA OVC025 FM250100 20009KT P6SM VCSH OVC035 FM250800 21013KT P6SM OVC020